sensor_id;sensor_type;location;lat;lon;timestamp;P1;durP1;ratioP1;P2;durP2;ratioP2
4873;SDS011;2451;49.970;9.068;2022-10-16T00:00:38;4.75;;;2.35;;
4873;SDS011;2451;49.970;9.068;2022-10-16T00:03:05;4.25;;;2.10;;
4873;SDS011;2451;49.970;9.068;2022-10-16T00:05:31;5.30;;;2.25;;
4873;SDS011;2451;49.970;9.068;2022-10-16T00:07:57;3.45;;;2.28;;
4873;SDS011;2451;49.970;9.068;2022-10-16T00:10:23;4.35;;;2.40;;
4873;SDS011;2451;49.970;9.068;2022-10-16T00:12:48;2.90;;;2.30;;
4873;SDS011;2451;49.970;9.068;2022-10-16T00:15:14;4.82;;;2.40;;
4873;SDS011;2451;49.970;9.068;2022-10-16T00:17:40;4.53;;;2.63;;
4873;SDS011;2451;49.970;9.068;2022-10-16T00:20:06;4.75;;;2.40;;
4873;SDS011;2451;49.970;9.068;2022-10-16T00:22:32;4.72;;;2.63;;
4873;SDS011;2451;49.970;9.068;2022-10-16T00:24:58;3.05;;;2.35;;
4873;SDS011;2451;49.970;9.068;2022-10-16T00:27:23;5.97;;;2.80;;
4873;SDS011;2451;49.970;9.068;2022-10-16T00:29:49;5.53;;;2.55;;
4873;SDS011;2451;49.970;9.068;2022-10-16T00:32:16;4.60;;;2.67;;
4873;SDS011;2451;49.970;9.068;2022-10-16T00:34:42;3.85;;;2.50;;
4873;SDS011;2451;49.970;9.068;2022-10-16T00:37:08;3.05;;;2.38;;
4873;SDS011;2451;49.970;9.068;2022-10-16T00:39:34;4.90;;;2.67;;
4873;SDS011;2451;49.970;9.068;2022-10-16T00:41:59;6.78;;;2.40;;
4873;SDS011;2451;49.970;9.068;2022-10-16T00:47:48;5.22;;;2.80;;
4873;SDS011;2451;49.970;9.068;2022-10-16T00:50:28;4.47;;;2.80;;
4873;SDS011;2451;49.970;9.068;2022-10-16T00:52:56;5.43;;;2.78;;
4873;SDS011;2451;49.970;9.068;2022-10-16T00:55:23;5.30;;;2.30;;
4873;SDS011;2451;49.970;9.068;2022-10-16T00:57:50;4.40;;;2.35;;
4873;SDS011;2451;49.970;9.068;2022-10-16T01:00:20;4.43;;;2.55;;
4873;SDS011;2451;49.970;9.068;2022-10-16T01:02:51;4.80;;;2.30;;
4873;SDS011;2451;49.970;9.068;2022-10-16T01:05:22;5.35;;;2.40;;
4873;SDS011;2451;49.970;9.068;2022-10-16T01:07:55;5.32;;;2.40;;
4873;SDS011;2451;49.970;9.068;2022-10-16T01:10:35;4.13;;;2.10;;
4873;SDS011;2451;49.970;9.068;2022-10-16T01:13:11;3.58;;;2.13;;
4873;SDS011;2451;49.970;9.068;2022-10-16T01:15:51;3.08;;;2.17;;
4873;SDS011;2451;49.970;9.068;2022-10-16T01:18:36;6.40;;;2.80;;
4873;SDS011;2451;49.970;9.068;2022-10-16T01:21:42;3.83;;;2.30;;
4873;SDS011;2451;49.970;9.068;2022-10-16T01:24:53;5.88;;;2.72;;
4873;SDS011;2451;49.970;9.068;2022-10-16T01:27:12;6.72;;;2.80;;
4873;SDS011;2451;49.970;9.068;2022-10-16T01:30:02;6.93;;;2.90;;
4873;SDS011;2451;49.970;9.068;2022-10-16T01:32:39;4.00;;;2.53;;
4873;SDS011;2451;49.970;9.068;2022-10-16T01:37:53;6.35;;;2.70;;
4873;SDS011;2451;49.970;9.068;2022-10-16T01:40:26;5.60;;;2.22;;
4873;SDS011;2451;49.970;9.068;2022-10-16T01:42:53;4.43;;;2.50;;
4873;SDS011;2451;49.970;9.068;2022-10-16T01:45:23;4.20;;;2.42;;
4873;SDS011;2451;49.970;9.068;2022-10-16T01:47:49;6.05;;;2.13;;
4873;SDS011;2451;49.970;9.068;2022-10-16T01:50:17;3.80;;;2.50;;
4873;SDS011;2451;49.970;9.068;2022-10-16T01:52:46;4.18;;;2.35;;
4873;SDS011;2451;49.970;9.068;2022-10-16T01:55:16;3.58;;;2.30;;
4873;SDS011;2451;49.970;9.068;2022-10-16T01:57:52;7.18;;;2.45;;
4873;SDS011;2451;49.970;9.068;2022-10-16T02:00:19;3.20;;;2.03;;
4873;SDS011;2451;49.970;9.068;2022-10-16T02:02:47;4.05;;;1.98;;
4873;SDS011;2451;49.970;9.068;2022-10-16T02:05:30;5.22;;;2.08;;
4873;SDS011;2451;49.970;9.068;2022-10-16T02:08:02;7.45;;;2.50;;
4873;SDS011;2451;49.970;9.068;2022-10-16T02:10:27;4.72;;;2.10;;
4873;SDS011;2451;49.970;9.068;2022-10-16T02:13:06;3.55;;;2.28;;
4873;SDS011;2451;49.970;9.068;2022-10-16T02:15:54;5.60;;;2.65;;
4873;SDS011;2451;49.970;9.068;2022-10-16T02:18:20;4.63;;;2.13;;
4873;SDS011;2451;49.970;9.068;2022-10-16T02:20:50;6.07;;;2.20;;
4873;SDS011;2451;49.970;9.068;2022-10-16T02:23:23;5.00;;;2.40;;
4873;SDS011;2451;49.970;9.068;2022-10-16T02:25:54;4.53;;;2.30;;
4873;SDS011;2451;49.970;9.068;2022-10-16T02:28:27;4.32;;;2.47;;
4873;SDS011;2451;49.970;9.068;2022-10-16T02:31:02;5.38;;;2.60;;
4873;SDS011;2451;49.970;9.068;2022-10-16T02:33:31;4.72;;;2.25;;
4873;SDS011;2451;49.970;9.068;2022-10-16T02:35:58;9.10;;;2.65;;
4873;SDS011;2451;49.970;9.068;2022-10-16T02:38:24;2.55;;;2.25;;
4873;SDS011;2451;49.970;9.068;2022-10-16T02:40:51;3.53;;;2.10;;
4873;SDS011;2451;49.970;9.068;2022-10-16T02:43:17;2.92;;;2.00;;
4873;SDS011;2451;49.970;9.068;2022-10-16T02:45:43;2.30;;;1.80;;
4873;SDS011;2451;49.970;9.068;2022-10-16T02:48:08;3.20;;;1.77;;
4873;SDS011;2451;49.970;9.068;2022-10-16T02:50:34;5.43;;;1.70;;
4873;SDS011;2451;49.970;9.068;2022-10-16T02:53:00;2.15;;;1.80;;
4873;SDS011;2451;49.970;9.068;2022-10-16T02:55:26;6.35;;;2.05;;
4873;SDS011;2451;49.970;9.068;2022-10-16T02:57:53;4.75;;;1.58;;
4873;SDS011;2451;49.970;9.068;2022-10-16T03:00:19;2.58;;;1.70;;
4873;SDS011;2451;49.970;9.068;2022-10-16T03:02:45;7.07;;;1.80;;
4873;SDS011;2451;49.970;9.068;2022-10-16T03:05:11;4.10;;;1.70;;
4873;SDS011;2451;49.970;9.068;2022-10-16T03:07:37;4.47;;;1.48;;
4873;SDS011;2451;49.970;9.068;2022-10-16T03:10:02;2.75;;;1.50;;
4873;SDS011;2451;49.970;9.068;2022-10-16T03:12:28;3.47;;;1.50;;
4873;SDS011;2451;49.970;9.068;2022-10-16T03:14:55;1.67;;;1.55;;
4873;SDS011;2451;49.970;9.068;2022-10-16T03:17:21;3.65;;;1.55;;
4873;SDS011;2451;49.970;9.068;2022-10-16T03:19:47;2.22;;;1.42;;
4873;SDS011;2451;49.970;9.068;2022-10-16T03:22:13;1.50;;;1.40;;
4873;SDS011;2451;49.970;9.068;2022-10-16T03:24:39;3.65;;;1.60;;
4873;SDS011;2451;49.970;9.068;2022-10-16T03:27:04;3.33;;;1.70;;
4873;SDS011;2451;49.970;9.068;2022-10-16T03:29:30;4.07;;;2.00;;
4873;SDS011;2451;49.970;9.068;2022-10-16T03:31:57;4.82;;;1.80;;
4873;SDS011;2451;49.970;9.068;2022-10-16T03:34:22;1.70;;;1.60;;
4873;SDS011;2451;49.970;9.068;2022-10-16T03:36:48;6.85;;;2.00;;
4873;SDS011;2451;49.970;9.068;2022-10-16T03:39:14;4.75;;;1.70;;
4873;SDS011;2451;49.970;9.068;2022-10-16T03:41:39;3.20;;;1.52;;
4873;SDS011;2451;49.970;9.068;2022-10-16T03:44:05;2.55;;;1.80;;
4873;SDS011;2451;49.970;9.068;2022-10-16T03:46:31;2.40;;;1.85;;
4873;SDS011;2451;49.970;9.068;2022-10-16T03:48:56;2.85;;;1.80;;
4873;SDS011;2451;49.970;9.068;2022-10-16T03:51:22;2.63;;;1.80;;
4873;SDS011;2451;49.970;9.068;2022-10-16T03:53:47;3.53;;;2.35;;
4873;SDS011;2451;49.970;9.068;2022-10-16T03:56:13;2.20;;;1.80;;
4873;SDS011;2451;49.970;9.068;2022-10-16T03:58:39;3.80;;;1.77;;
4873;SDS011;2451;49.970;9.068;2022-10-16T04:01:04;3.13;;;1.67;;
4873;SDS011;2451;49.970;9.068;2022-10-16T04:03:30;3.70;;;1.90;;
4873;SDS011;2451;49.970;9.068;2022-10-16T04:05:56;5.50;;;1.80;;
4873;SDS011;2451;49.970;9.068;2022-10-16T04:08:22;4.53;;;1.70;;
4873;SDS011;2451;49.970;9.068;2022-10-16T04:10:47;6.30;;;1.90;;
4873;SDS011;2451;49.970;9.068;2022-10-16T04:13:13;5.50;;;2.00;;
4873;SDS011;2451;49.970;9.068;2022-10-16T04:15:39;2.60;;;1.90;;
4873;SDS011;2451;49.970;9.068;2022-10-16T04:18:04;3.67;;;1.77;;
4873;SDS011;2451;49.970;9.068;2022-10-16T04:20:30;5.70;;;2.00;;
4873;SDS011;2451;49.970;9.068;2022-10-16T04:22:56;2.42;;;1.90;;
4873;SDS011;2451;49.970;9.068;2022-10-16T04:25:22;5.50;;;2.00;;
4873;SDS011;2451;49.970;9.068;2022-10-16T04:27:47;3.08;;;2.30;;
4873;SDS011;2451;49.970;9.068;2022-10-16T04:30:13;6.22;;;2.42;;
4873;SDS011;2451;49.970;9.068;2022-10-16T04:32:38;6.78;;;2.72;;
4873;SDS011;2451;49.970;9.068;2022-10-16T04:35:04;3.00;;;2.70;;
4873;SDS011;2451;49.970;9.068;2022-10-16T04:37:31;3.95;;;2.78;;
4873;SDS011;2451;49.970;9.068;2022-10-16T04:39:57;3.42;;;2.42;;
4873;SDS011;2451;49.970;9.068;2022-10-16T04:42:22;3.88;;;2.60;;
4873;SDS011;2451;49.970;9.068;2022-10-16T04:44:48;5.53;;;2.60;;
4873;SDS011;2451;49.970;9.068;2022-10-16T04:47:13;7.50;;;2.80;;
4873;SDS011;2451;49.970;9.068;2022-10-16T04:49:39;8.40;;;2.55;;
4873;SDS011;2451;49.970;9.068;2022-10-16T04:52:05;4.90;;;2.70;;
4873;SDS011;2451;49.970;9.068;2022-10-16T04:54:30;3.63;;;2.85;;
4873;SDS011;2451;49.970;9.068;2022-10-16T04:56:56;5.72;;;2.50;;
4873;SDS011;2451;49.970;9.068;2022-10-16T04:59:22;7.25;;;2.90;;
4873;SDS011;2451;49.970;9.068;2022-10-16T05:01:47;7.55;;;2.90;;
4873;SDS011;2451;49.970;9.068;2022-10-16T05:04:13;11.43;;;3.40;;
4873;SDS011;2451;49.970;9.068;2022-10-16T05:06:40;6.28;;;3.03;;
4873;SDS011;2451;49.970;9.068;2022-10-16T05:09:06;6.47;;;2.88;;
4873;SDS011;2451;49.970;9.068;2022-10-16T05:11:32;6.70;;;3.17;;
4873;SDS011;2451;49.970;9.068;2022-10-16T05:13:58;4.68;;;3.10;;
4873;SDS011;2451;49.970;9.068;2022-10-16T05:16:23;5.07;;;2.85;;
4873;SDS011;2451;49.970;9.068;2022-10-16T05:18:50;5.05;;;2.85;;
4873;SDS011;2451;49.970;9.068;2022-10-16T05:21:16;4.90;;;3.00;;
4873;SDS011;2451;49.970;9.068;2022-10-16T05:23:41;6.60;;;2.80;;
4873;SDS011;2451;49.970;9.068;2022-10-16T05:26:07;6.95;;;2.90;;
4873;SDS011;2451;49.970;9.068;2022-10-16T05:28:33;6.35;;;2.90;;
4873;SDS011;2451;49.970;9.068;2022-10-16T05:30:59;4.97;;;3.00;;
4873;SDS011;2451;49.970;9.068;2022-10-16T05:33:32;4.72;;;2.90;;
4873;SDS011;2451;49.970;9.068;2022-10-16T05:36:05;5.28;;;3.13;;
4873;SDS011;2451;49.970;9.068;2022-10-16T05:38:35;6.22;;;3.00;;
4873;SDS011;2451;49.970;9.068;2022-10-16T05:41:01;5.68;;;3.28;;
4873;SDS011;2451;49.970;9.068;2022-10-16T05:43:28;4.25;;;3.17;;
4873;SDS011;2451;49.970;9.068;2022-10-16T05:45:55;6.40;;;3.38;;
4873;SDS011;2451;49.970;9.068;2022-10-16T05:48:25;7.30;;;3.20;;
4873;SDS011;2451;49.970;9.068;2022-10-16T05:51:24;5.15;;;2.97;;
4873;SDS011;2451;49.970;9.068;2022-10-16T05:53:43;4.85;;;2.97;;
4873;SDS011;2451;49.970;9.068;2022-10-16T05:56:09;7.95;;;3.42;;
4873;SDS011;2451;49.970;9.068;2022-10-16T05:58:37;7.07;;;3.25;;
4873;SDS011;2451;49.970;9.068;2022-10-16T06:01:06;8.60;;;5.07;;
4873;SDS011;2451;49.970;9.068;2022-10-16T06:03:34;8.07;;;6.85;;
4873;SDS011;2451;49.970;9.068;2022-10-16T06:06:06;10.80;;;8.75;;
4873;SDS011;2451;49.970;9.068;2022-10-16T06:08:36;10.32;;;5.68;;
4873;SDS011;2451;49.970;9.068;2022-10-16T06:11:06;9.43;;;5.05;;
4873;SDS011;2451;49.970;9.068;2022-10-16T06:13:33;6.13;;;4.20;;
4873;SDS011;2451;49.970;9.068;2022-10-16T06:15:59;5.35;;;4.18;;
4873;SDS011;2451;49.970;9.068;2022-10-16T06:18:25;13.15;;;4.88;;
4873;SDS011;2451;49.970;9.068;2022-10-16T06:20:52;6.90;;;4.38;;
4873;SDS011;2451;49.970;9.068;2022-10-16T06:23:17;8.25;;;6.18;;
4873;SDS011;2451;49.970;9.068;2022-10-16T06:25:43;7.18;;;4.18;;
4873;SDS011;2451;49.970;9.068;2022-10-16T06:28:08;7.65;;;4.47;;
4873;SDS011;2451;49.970;9.068;2022-10-16T06:30:34;7.55;;;4.38;;
4873;SDS011;2451;49.970;9.068;2022-10-16T06:32:59;7.00;;;4.57;;
4873;SDS011;2451;49.970;9.068;2022-10-16T06:35:25;10.45;;;5.90;;
4873;SDS011;2451;49.970;9.068;2022-10-16T06:37:52;8.65;;;5.05;;
4873;SDS011;2451;49.970;9.068;2022-10-16T06:40:18;8.82;;;4.68;;
4873;SDS011;2451;49.970;9.068;2022-10-16T06:42:44;9.07;;;5.40;;
4873;SDS011;2451;49.970;9.068;2022-10-16T06:45:09;8.68;;;5.00;;
4873;SDS011;2451;49.970;9.068;2022-10-16T06:47:35;9.13;;;5.28;;
4873;SDS011;2451;49.970;9.068;2022-10-16T06:50:01;7.85;;;4.78;;
4873;SDS011;2451;49.970;9.068;2022-10-16T06:52:29;9.88;;;4.80;;
4873;SDS011;2451;49.970;9.068;2022-10-16T06:54:55;8.77;;;4.90;;
4873;SDS011;2451;49.970;9.068;2022-10-16T06:57:21;7.20;;;5.20;;
4873;SDS011;2451;49.970;9.068;2022-10-16T06:59:47;8.30;;;5.50;;
4873;SDS011;2451;49.970;9.068;2022-10-16T07:02:12;11.48;;;5.93;;
4873;SDS011;2451;49.970;9.068;2022-10-16T07:04:38;7.07;;;5.75;;
4873;SDS011;2451;49.970;9.068;2022-10-16T07:07:03;9.18;;;5.63;;
4873;SDS011;2451;49.970;9.068;2022-10-16T07:09:29;13.35;;;8.40;;
4873;SDS011;2451;49.970;9.068;2022-10-16T07:11:54;10.98;;;7.88;;
4873;SDS011;2451;49.970;9.068;2022-10-16T07:14:20;8.73;;;5.55;;
4873;SDS011;2451;49.970;9.068;2022-10-16T07:16:46;8.27;;;5.32;;
4873;SDS011;2451;49.970;9.068;2022-10-16T07:19:12;7.90;;;5.47;;
4873;SDS011;2451;49.970;9.068;2022-10-16T07:21:40;9.32;;;4.65;;
4873;SDS011;2451;49.970;9.068;2022-10-16T07:24:10;12.00;;;5.28;;
4873;SDS011;2451;49.970;9.068;2022-10-16T07:26:38;10.40;;;4.90;;
4873;SDS011;2451;49.970;9.068;2022-10-16T07:29:04;7.82;;;4.72;;
4873;SDS011;2451;49.970;9.068;2022-10-16T07:31:31;6.90;;;4.85;;
4873;SDS011;2451;49.970;9.068;2022-10-16T07:33:58;12.95;;;5.70;;
4873;SDS011;2451;49.970;9.068;2022-10-16T07:36:25;11.00;;;5.35;;
4873;SDS011;2451;49.970;9.068;2022-10-16T07:38:50;8.82;;;4.88;;
4873;SDS011;2451;49.970;9.068;2022-10-16T07:41:17;8.82;;;4.90;;
4873;SDS011;2451;49.970;9.068;2022-10-16T07:43:48;6.55;;;4.57;;
4873;SDS011;2451;49.970;9.068;2022-10-16T07:46:14;7.30;;;4.30;;
4873;SDS011;2451;49.970;9.068;2022-10-16T07:48:41;7.53;;;4.43;;
4873;SDS011;2451;49.970;9.068;2022-10-16T07:51:10;10.50;;;4.38;;
4873;SDS011;2451;49.970;9.068;2022-10-16T07:53:37;8.10;;;4.68;;
4873;SDS011;2451;49.970;9.068;2022-10-16T07:56:06;6.38;;;4.47;;
4873;SDS011;2451;49.970;9.068;2022-10-16T07:58:32;7.75;;;4.03;;
4873;SDS011;2451;49.970;9.068;2022-10-16T08:01:02;8.75;;;4.30;;
4873;SDS011;2451;49.970;9.068;2022-10-16T08:03:29;6.30;;;4.50;;
4873;SDS011;2451;49.970;9.068;2022-10-16T08:05:56;10.20;;;4.55;;
4873;SDS011;2451;49.970;9.068;2022-10-16T08:08:22;10.15;;;5.00;;
4873;SDS011;2451;49.970;9.068;2022-10-16T08:10:48;6.53;;;4.10;;
4873;SDS011;2451;49.970;9.068;2022-10-16T08:13:13;9.00;;;4.00;;
4873;SDS011;2451;49.970;9.068;2022-10-16T08:15:40;7.88;;;4.15;;
4873;SDS011;2451;49.970;9.068;2022-10-16T08:18:06;6.30;;;3.90;;
4873;SDS011;2451;49.970;9.068;2022-10-16T08:20:32;6.95;;;3.92;;
4873;SDS011;2451;49.970;9.068;2022-10-16T08:22:59;8.02;;;3.83;;
4873;SDS011;2451;49.970;9.068;2022-10-16T08:25:25;5.97;;;3.85;;
4873;SDS011;2451;49.970;9.068;2022-10-16T08:27:50;7.20;;;3.67;;
4873;SDS011;2451;49.970;9.068;2022-10-16T08:30:17;4.72;;;3.95;;
4873;SDS011;2451;49.970;9.068;2022-10-16T08:32:44;6.82;;;3.47;;
4873;SDS011;2451;49.970;9.068;2022-10-16T08:35:10;5.88;;;3.30;;
4873;SDS011;2451;49.970;9.068;2022-10-16T08:37:36;5.85;;;3.00;;
4873;SDS011;2451;49.970;9.068;2022-10-16T08:40:03;5.82;;;3.45;;
4873;SDS011;2451;49.970;9.068;2022-10-16T08:42:40;6.35;;;3.30;;
4873;SDS011;2451;49.970;9.068;2022-10-16T08:45:28;7.63;;;3.65;;
4873;SDS011;2451;49.970;9.068;2022-10-16T08:48:00;5.97;;;3.40;;
4873;SDS011;2451;49.970;9.068;2022-10-16T08:50:29;5.57;;;4.00;;
4873;SDS011;2451;49.970;9.068;2022-10-16T08:52:56;7.25;;;3.67;;
4873;SDS011;2451;49.970;9.068;2022-10-16T08:55:28;7.53;;;3.30;;
4873;SDS011;2451;49.970;9.068;2022-10-16T08:58:13;6.28;;;3.30;;
4873;SDS011;2451;49.970;9.068;2022-10-16T09:00:48;9.07;;;4.18;;
4873;SDS011;2451;49.970;9.068;2022-10-16T09:06:46;7.45;;;3.40;;
4873;SDS011;2451;49.970;9.068;2022-10-16T09:09:35;6.40;;;3.42;;
4873;SDS011;2451;49.970;9.068;2022-10-16T09:17:35;7.13;;;3.13;;
4873;SDS011;2451;49.970;9.068;2022-10-16T09:25:51;6.82;;;4.72;;
4873;SDS011;2451;49.970;9.068;2022-10-16T09:28:18;9.27;;;3.95;;
4873;SDS011;2451;49.970;9.068;2022-10-16T09:30:44;7.32;;;4.10;;
4873;SDS011;2451;49.970;9.068;2022-10-16T09:33:13;7.55;;;4.30;;
4873;SDS011;2451;49.970;9.068;2022-10-16T09:35:40;8.88;;;4.40;;
4873;SDS011;2451;49.970;9.068;2022-10-16T09:38:09;11.90;;;7.18;;
4873;SDS011;2451;49.970;9.068;2022-10-16T09:40:46;10.68;;;6.10;;
4873;SDS011;2451;49.970;9.068;2022-10-16T09:45:40;5.87;;;4.37;;
4873;SDS011;2451;49.970;9.068;2022-10-16T09:48:12;6.45;;;4.00;;
4873;SDS011;2451;49.970;9.068;2022-10-16T09:50:54;4.95;;;2.75;;
4873;SDS011;2451;49.970;9.068;2022-10-16T09:53:21;6.45;;;3.03;;
4873;SDS011;2451;49.970;9.068;2022-10-16T09:55:51;4.25;;;2.53;;
4873;SDS011;2451;49.970;9.068;2022-10-16T09:58:21;8.18;;;2.95;;
4873;SDS011;2451;49.970;9.068;2022-10-16T10:00:51;5.53;;;2.58;;
4873;SDS011;2451;49.970;9.068;2022-10-16T10:03:37;7.00;;;3.90;;
4873;SDS011;2451;49.970;9.068;2022-10-16T10:08:57;6.78;;;3.75;;
4873;SDS011;2451;49.970;9.068;2022-10-16T10:11:47;6.80;;;3.38;;
4873;SDS011;2451;49.970;9.068;2022-10-16T10:16:51;7.40;;;3.40;;
4873;SDS011;2451;49.970;9.068;2022-10-16T10:19:19;6.47;;;3.55;;
4873;SDS011;2451;49.970;9.068;2022-10-16T10:21:46;8.73;;;3.50;;
4873;SDS011;2451;49.970;9.068;2022-10-16T10:24:14;8.43;;;3.45;;
4873;SDS011;2451;49.970;9.068;2022-10-16T10:27:02;6.65;;;2.97;;
4873;SDS011;2451;49.970;9.068;2022-10-16T10:30:22;7.65;;;3.80;;
4873;SDS011;2451;49.970;9.068;2022-10-16T10:37:46;5.90;;;3.58;;
4873;SDS011;2451;49.970;9.068;2022-10-16T10:40:34;5.90;;;3.33;;
4873;SDS011;2451;49.970;9.068;2022-10-16T10:46:18;6.55;;;3.28;;
4873;SDS011;2451;49.970;9.068;2022-10-16T10:54:44;2.90;;;1.67;;
4873;SDS011;2451;49.970;9.068;2022-10-16T10:57:34;1.98;;;1.48;;
4873;SDS011;2451;49.970;9.068;2022-10-16T11:00:27;2.90;;;1.30;;
4873;SDS011;2451;49.970;9.068;2022-10-16T11:03:17;3.67;;;1.40;;
4873;SDS011;2451;49.970;9.068;2022-10-16T11:05:49;5.72;;;1.65;;
4873;SDS011;2451;49.970;9.068;2022-10-16T11:08:20;2.78;;;1.67;;
4873;SDS011;2451;49.970;9.068;2022-10-16T11:11:10;5.60;;;1.50;;
4873;SDS011;2451;49.970;9.068;2022-10-16T11:16:31;2.22;;;1.35;;
4873;SDS011;2451;49.970;9.068;2022-10-16T11:22:00;6.05;;;2.10;;
4873;SDS011;2451;49.970;9.068;2022-10-16T11:24:48;2.53;;;1.80;;
4873;SDS011;2451;49.970;9.068;2022-10-16T11:27:32;2.67;;;1.58;;
4873;SDS011;2451;49.970;9.068;2022-10-16T11:30:22;4.53;;;1.35;;
4873;SDS011;2451;49.970;9.068;2022-10-16T11:32:56;3.53;;;1.67;;
4873;SDS011;2451;49.970;9.068;2022-10-16T11:35:44;3.60;;;1.50;;
4873;SDS011;2451;49.970;9.068;2022-10-16T11:38:30;3.13;;;1.65;;
4873;SDS011;2451;49.970;9.068;2022-10-16T11:41:18;4.00;;;1.40;;
4873;SDS011;2451;49.970;9.068;2022-10-16T11:44:00;5.50;;;1.52;;
4873;SDS011;2451;49.970;9.068;2022-10-16T11:46:40;3.03;;;1.50;;
4873;SDS011;2451;49.970;9.068;2022-10-16T11:49:14;4.30;;;1.50;;
4873;SDS011;2451;49.970;9.068;2022-10-16T11:51:45;4.45;;;1.77;;
4873;SDS011;2451;49.970;9.068;2022-10-16T11:56:57;8.67;;;2.73;;
4873;SDS011;2451;49.970;9.068;2022-10-16T12:04:52;3.38;;;1.60;;
4873;SDS011;2451;49.970;9.068;2022-10-16T12:07:49;5.53;;;1.55;;
4873;SDS011;2451;49.970;9.068;2022-10-16T12:10:24;5.00;;;2.08;;
4873;SDS011;2451;49.970;9.068;2022-10-16T12:12:51;2.83;;;1.50;;
4873;SDS011;2451;49.970;9.068;2022-10-16T12:15:21;3.80;;;1.60;;
4873;SDS011;2451;49.970;9.068;2022-10-16T12:17:55;5.18;;;1.50;;
4873;SDS011;2451;49.970;9.068;2022-10-16T12:25:39;3.07;;;1.70;;
4873;SDS011;2451;49.970;9.068;2022-10-16T12:30:40;3.37;;;1.73;;
4873;SDS011;2451;49.970;9.068;2022-10-16T12:33:21;4.15;;;1.70;;
4873;SDS011;2451;49.970;9.068;2022-10-16T12:35:58;2.45;;;1.58;;
4873;SDS011;2451;49.970;9.068;2022-10-16T12:38:35;3.38;;;1.80;;
4873;SDS011;2451;49.970;9.068;2022-10-16T12:41:10;2.13;;;1.55;;
4873;SDS011;2451;49.970;9.068;2022-10-16T12:48:35;4.70;;;1.52;;
4873;SDS011;2451;49.970;9.068;2022-10-16T12:53:37;3.42;;;1.75;;
4873;SDS011;2451;49.970;9.068;2022-10-16T12:56:05;3.13;;;1.70;;
4873;SDS011;2451;49.970;9.068;2022-10-16T13:07:33;3.65;;;1.85;;
4873;SDS011;2451;49.970;9.068;2022-10-16T13:24:28;2.15;;;1.63;;
4873;SDS011;2451;49.970;9.068;2022-10-16T13:29:38;4.25;;;1.80;;
4873;SDS011;2451;49.970;9.068;2022-10-16T13:32:09;4.75;;;1.70;;
4873;SDS011;2451;49.970;9.068;2022-10-16T13:34:44;8.23;;;2.10;;
4873;SDS011;2451;49.970;9.068;2022-10-16T13:37:22;3.08;;;1.70;;
4873;SDS011;2451;49.970;9.068;2022-10-16T13:39:49;5.78;;;2.30;;
4873;SDS011;2451;49.970;9.068;2022-10-16T13:44:44;3.58;;;1.73;;
4873;SDS011;2451;49.970;9.068;2022-10-16T13:49:43;3.72;;;1.75;;
4873;SDS011;2451;49.970;9.068;2022-10-16T13:52:16;7.82;;;2.08;;
4873;SDS011;2451;49.970;9.068;2022-10-16T13:54:44;3.55;;;1.90;;
4873;SDS011;2451;49.970;9.068;2022-10-16T13:57:14;4.10;;;2.20;;
4873;SDS011;2451;49.970;9.068;2022-10-16T13:59:41;3.80;;;2.00;;
4873;SDS011;2451;49.970;9.068;2022-10-16T14:04:51;3.92;;;2.00;;
4873;SDS011;2451;49.970;9.068;2022-10-16T14:07:25;4.70;;;2.20;;
4873;SDS011;2451;49.970;9.068;2022-10-16T14:09:53;5.53;;;1.95;;
4873;SDS011;2451;49.970;9.068;2022-10-16T14:12:20;7.82;;;2.00;;
4873;SDS011;2451;49.970;9.068;2022-10-16T14:14:47;3.00;;;1.83;;
4873;SDS011;2451;49.970;9.068;2022-10-16T14:17:18;7.82;;;1.98;;
4873;SDS011;2451;49.970;9.068;2022-10-16T14:19:50;4.13;;;2.38;;
4873;SDS011;2451;49.970;9.068;2022-10-16T14:24:55;12.77;;;4.97;;
4873;SDS011;2451;49.970;9.068;2022-10-16T14:27:32;4.07;;;2.92;;
4873;SDS011;2451;49.970;9.068;2022-10-16T14:32:37;4.60;;;2.70;;
4873;SDS011;2451;49.970;9.068;2022-10-16T14:35:21;5.88;;;3.30;;
4873;SDS011;2451;49.970;9.068;2022-10-16T14:37:54;4.57;;;2.53;;
4873;SDS011;2451;49.970;9.068;2022-10-16T14:40:22;6.03;;;2.50;;
4873;SDS011;2451;49.970;9.068;2022-10-16T14:42:51;5.15;;;2.85;;
4873;SDS011;2451;49.970;9.068;2022-10-16T14:45:21;4.05;;;2.58;;
4873;SDS011;2451;49.970;9.068;2022-10-16T14:47:50;4.82;;;2.60;;
4873;SDS011;2451;49.970;9.068;2022-10-16T14:50:21;4.22;;;2.38;;
4873;SDS011;2451;49.970;9.068;2022-10-16T14:52:47;5.13;;;2.35;;
4873;SDS011;2451;49.970;9.068;2022-10-16T14:55:13;3.58;;;2.30;;
4873;SDS011;2451;49.970;9.068;2022-10-16T14:57:38;5.32;;;2.20;;
4873;SDS011;2451;49.970;9.068;2022-10-16T15:00:23;3.67;;;1.90;;
4873;SDS011;2451;49.970;9.068;2022-10-16T15:02:49;5.88;;;2.45;;
4873;SDS011;2451;49.970;9.068;2022-10-16T15:07:45;4.85;;;2.40;;
4873;SDS011;2451;49.970;9.068;2022-10-16T15:10:12;3.00;;;2.17;;
4873;SDS011;2451;49.970;9.068;2022-10-16T15:12:39;4.57;;;2.50;;
4873;SDS011;2451;49.970;9.068;2022-10-16T15:15:27;5.10;;;3.05;;
4873;SDS011;2451;49.970;9.068;2022-10-16T15:17:56;6.47;;;3.10;;
4873;SDS011;2451;49.970;9.068;2022-10-16T15:20:25;3.83;;;2.80;;
4873;SDS011;2451;49.970;9.068;2022-10-16T15:22:59;6.60;;;3.50;;
4873;SDS011;2451;49.970;9.068;2022-10-16T15:25:33;6.30;;;3.00;;
4873;SDS011;2451;49.970;9.068;2022-10-16T15:28:02;5.85;;;3.03;;
4873;SDS011;2451;49.970;9.068;2022-10-16T15:30:28;5.88;;;2.75;;
4873;SDS011;2451;49.970;9.068;2022-10-16T15:32:55;4.50;;;2.53;;
4873;SDS011;2451;49.970;9.068;2022-10-16T15:35:20;5.18;;;3.17;;
4873;SDS011;2451;49.970;9.068;2022-10-16T15:37:46;3.72;;;2.72;;
4873;SDS011;2451;49.970;9.068;2022-10-16T15:40:13;6.35;;;3.10;;
4873;SDS011;2451;49.970;9.068;2022-10-16T15:42:40;4.95;;;3.17;;
4873;SDS011;2451;49.970;9.068;2022-10-16T15:45:05;4.05;;;3.03;;
4873;SDS011;2451;49.970;9.068;2022-10-16T15:47:31;3.95;;;3.00;;
4873;SDS011;2451;49.970;9.068;2022-10-16T15:49:57;4.45;;;3.28;;
4873;SDS011;2451;49.970;9.068;2022-10-16T15:52:23;6.75;;;2.80;;
4873;SDS011;2451;49.970;9.068;2022-10-16T15:54:49;11.07;;;2.95;;
4873;SDS011;2451;49.970;9.068;2022-10-16T15:57:14;7.50;;;3.17;;
4873;SDS011;2451;49.970;9.068;2022-10-16T15:59:40;6.60;;;3.15;;
4873;SDS011;2451;49.970;9.068;2022-10-16T16:02:06;7.28;;;3.30;;
4873;SDS011;2451;49.970;9.068;2022-10-16T16:04:32;5.15;;;2.97;;
4873;SDS011;2451;49.970;9.068;2022-10-16T16:06:58;5.53;;;3.33;;
4873;SDS011;2451;49.970;9.068;2022-10-16T16:09:24;6.05;;;3.30;;
4873;SDS011;2451;49.970;9.068;2022-10-16T16:11:49;5.70;;;3.70;;
4873;SDS011;2451;49.970;9.068;2022-10-16T16:14:17;6.22;;;3.63;;
4873;SDS011;2451;49.970;9.068;2022-10-16T16:16:42;5.57;;;3.35;;
4873;SDS011;2451;49.970;9.068;2022-10-16T16:19:08;7.13;;;4.25;;
4873;SDS011;2451;49.970;9.068;2022-10-16T16:21:34;7.00;;;4.38;;
4873;SDS011;2451;49.970;9.068;2022-10-16T16:24:00;12.90;;;5.10;;
4873;SDS011;2451;49.970;9.068;2022-10-16T16:26:32;10.65;;;4.63;;
4873;SDS011;2451;49.970;9.068;2022-10-16T16:29:01;7.95;;;4.53;;
4873;SDS011;2451;49.970;9.068;2022-10-16T16:31:28;7.30;;;3.90;;
4873;SDS011;2451;49.970;9.068;2022-10-16T16:33:56;7.22;;;3.60;;
4873;SDS011;2451;49.970;9.068;2022-10-16T16:36:22;13.93;;;8.93;;
4873;SDS011;2451;49.970;9.068;2022-10-16T16:38:48;16.58;;;8.30;;
4873;SDS011;2451;49.970;9.068;2022-10-16T16:41:14;11.68;;;5.90;;
4873;SDS011;2451;49.970;9.068;2022-10-16T16:43:41;12.43;;;8.02;;
4873;SDS011;2451;49.970;9.068;2022-10-16T16:46:07;9.95;;;6.45;;
4873;SDS011;2451;49.970;9.068;2022-10-16T16:48:33;11.10;;;6.45;;
4873;SDS011;2451;49.970;9.068;2022-10-16T16:51:05;9.13;;;5.40;;
4873;SDS011;2451;49.970;9.068;2022-10-16T16:53:40;7.07;;;4.22;;
4873;SDS011;2451;49.970;9.068;2022-10-16T16:56:06;8.13;;;4.60;;
4873;SDS011;2451;49.970;9.068;2022-10-16T16:58:32;6.78;;;5.13;;
4873;SDS011;2451;49.970;9.068;2022-10-16T17:00:58;7.45;;;5.20;;
4873;SDS011;2451;49.970;9.068;2022-10-16T17:03:27;10.80;;;5.45;;
4873;SDS011;2451;49.970;9.068;2022-10-16T17:06:00;10.90;;;5.60;;
4873;SDS011;2451;49.970;9.068;2022-10-16T17:08:28;8.73;;;5.28;;
4873;SDS011;2451;49.970;9.068;2022-10-16T17:10:54;10.13;;;5.65;;
4873;SDS011;2451;49.970;9.068;2022-10-16T17:13:22;6.93;;;4.97;;
4873;SDS011;2451;49.970;9.068;2022-10-16T17:15:55;7.10;;;4.85;;
4873;SDS011;2451;49.970;9.068;2022-10-16T17:18:22;10.77;;;5.13;;
4873;SDS011;2451;49.970;9.068;2022-10-16T17:20:48;10.80;;;5.00;;
4873;SDS011;2451;49.970;9.068;2022-10-16T17:23:16;7.95;;;4.50;;